sensor_id;sensor_type;location;lat;lon;timestamp;P1;durP1;ratioP1;P2;durP2;ratioP2
22111;SDS011;11222;50.872;4.312;2022-11-15T00:01:54;38.03;;;22.92;;
22111;SDS011;11222;50.872;4.312;2022-11-15T00:04:19;34.00;;;22.85;;
22111;SDS011;11222;50.872;4.312;2022-11-15T00:06:45;36.70;;;23.17;;
22111;SDS011;11222;50.872;4.312;2022-11-15T00:09:11;32.45;;;21.45;;
22111;SDS011;11222;50.872;4.312;2022-11-15T00:11:36;32.97;;;22.20;;
22111;SDS011;11222;50.872;4.312;2022-11-15T00:14:02;31.98;;;22.60;;
22111;SDS011;11222;50.872;4.312;2022-11-15T00:16:28;35.92;;;23.52;;
22111;SDS011;11222;50.872;4.312;2022-11-15T00:18:53;32.53;;;23.05;;
22111;SDS011;11222;50.872;4.312;2022-11-15T00:21:19;37.20;;;25.00;;
22111;SDS011;11222;50.872;4.312;2022-11-15T00:23:45;34.70;;;23.58;;
22111;SDS011;11222;50.872;4.312;2022-11-15T00:26:11;36.13;;;23.83;;
22111;SDS011;11222;50.872;4.312;2022-11-15T00:28:38;38.35;;;23.75;;
22111;SDS011;11222;50.872;4.312;2022-11-15T00:31:06;33.50;;;23.42;;
22111;SDS011;11222;50.872;4.312;2022-11-15T00:33:33;33.83;;;24.00;;
22111;SDS011;11222;50.872;4.312;2022-11-15T00:36:03;33.95;;;23.48;;
22111;SDS011;11222;50.872;4.312;2022-11-15T00:38:34;34.63;;;23.95;;
22111;SDS011;11222;50.872;4.312;2022-11-15T00:41:04;34.95;;;23.30;;
22111;SDS011;11222;50.872;4.312;2022-11-15T00:43:31;35.83;;;24.00;;
22111;SDS011;11222;50.872;4.312;2022-11-15T00:45:58;41.38;;;24.58;;
22111;SDS011;11222;50.872;4.312;2022-11-15T00:48:24;40.17;;;25.20;;
22111;SDS011;11222;50.872;4.312;2022-11-15T00:50:50;35.22;;;25.30;;
22111;SDS011;11222;50.872;4.312;2022-11-15T00:53:16;41.17;;;24.73;;
22111;SDS011;11222;50.872;4.312;2022-11-15T00:55:42;35.60;;;23.80;;
22111;SDS011;11222;50.872;4.312;2022-11-15T00:58:07;38.65;;;25.00;;
22111;SDS011;11222;50.872;4.312;2022-11-15T01:00:33;37.95;;;25.27;;
22111;SDS011;11222;50.872;4.312;2022-11-15T01:02:59;35.65;;;25.20;;
22111;SDS011;11222;50.872;4.312;2022-11-15T01:05:26;37.70;;;24.98;;
22111;SDS011;11222;50.872;4.312;2022-11-15T01:07:52;37.53;;;25.13;;
22111;SDS011;11222;50.872;4.312;2022-11-15T01:10:18;38.25;;;25.40;;
22111;SDS011;11222;50.872;4.312;2022-11-15T01:12:44;38.00;;;26.30;;
22111;SDS011;11222;50.872;4.312;2022-11-15T01:15:10;39.80;;;26.15;;
22111;SDS011;11222;50.872;4.312;2022-11-15T01:17:35;45.30;;;25.77;;
22111;SDS011;11222;50.872;4.312;2022-11-15T01:20:01;40.65;;;25.73;;
22111;SDS011;11222;50.872;4.312;2022-11-15T01:22:27;37.40;;;25.30;;
22111;SDS011;11222;50.872;4.312;2022-11-15T01:24:53;37.50;;;24.85;;
22111;SDS011;11222;50.872;4.312;2022-11-15T01:27:18;40.67;;;25.77;;
22111;SDS011;11222;50.872;4.312;2022-11-15T01:29:44;38.85;;;25.35;;
22111;SDS011;11222;50.872;4.312;2022-11-15T01:32:10;41.80;;;26.10;;
22111;SDS011;11222;50.872;4.312;2022-11-15T01:34:35;37.88;;;25.50;;
22111;SDS011;11222;50.872;4.312;2022-11-15T01:37:01;41.58;;;25.27;;
22111;SDS011;11222;50.872;4.312;2022-11-15T01:39:27;37.42;;;25.10;;
22111;SDS011;11222;50.872;4.312;2022-11-15T01:41:53;41.17;;;25.40;;
22111;SDS011;11222;50.872;4.312;2022-11-15T01:44:31;43.60;;;26.55;;
22111;SDS011;11222;50.872;4.312;2022-11-15T01:46:57;34.38;;;24.98;;
22111;SDS011;11222;50.872;4.312;2022-11-15T01:49:25;39.42;;;25.10;;
22111;SDS011;11222;50.872;4.312;2022-11-15T01:51:54;39.85;;;25.10;;
22111;SDS011;11222;50.872;4.312;2022-11-15T01:54:21;38.70;;;24.38;;
22111;SDS011;11222;50.872;4.312;2022-11-15T01:56:52;34.58;;;23.63;;
22111;SDS011;11222;50.872;4.312;2022-11-15T01:59:23;36.35;;;24.23;;
22111;SDS011;11222;50.872;4.312;2022-11-15T02:01:50;34.38;;;22.88;;
22111;SDS011;11222;50.872;4.312;2022-11-15T02:04:17;42.22;;;24.88;;
22111;SDS011;11222;50.872;4.312;2022-11-15T02:06:48;34.83;;;22.48;;
22111;SDS011;11222;50.872;4.312;2022-11-15T02:09:14;35.42;;;22.67;;
22111;SDS011;11222;50.872;4.312;2022-11-15T02:11:41;39.67;;;22.77;;
22111;SDS011;11222;50.872;4.312;2022-11-15T02:14:08;36.08;;;21.65;;
22111;SDS011;11222;50.872;4.312;2022-11-15T02:22:18;38.92;;;23.60;;
22111;SDS011;11222;50.872;4.312;2022-11-15T02:25:06;36.10;;;22.73;;
22111;SDS011;11222;50.872;4.312;2022-11-15T02:35:52;32.53;;;21.65;;
22111;SDS011;11222;50.872;4.312;2022-11-15T02:38:40;33.10;;;22.02;;
22111;SDS011;11222;50.872;4.312;2022-11-15T02:41:23;36.17;;;22.60;;
22111;SDS011;11222;50.872;4.312;2022-11-15T02:44:43;32.50;;;21.70;;
22111;SDS011;11222;50.872;4.312;2022-11-15T02:47:03;33.55;;;21.52;;
22111;SDS011;11222;50.872;4.312;2022-11-15T02:49:48;34.10;;;22.05;;
22111;SDS011;11222;50.872;4.312;2022-11-15T02:52:24;34.13;;;21.40;;
22111;SDS011;11222;50.872;4.312;2022-11-15T02:54:53;35.08;;;22.00;;
22111;SDS011;11222;50.872;4.312;2022-11-15T02:57:23;32.05;;;20.42;;
22111;SDS011;11222;50.872;4.312;2022-11-15T03:00:01;34.13;;;22.02;;
22111;SDS011;11222;50.872;4.312;2022-11-15T03:05:17;29.17;;;20.15;;
22111;SDS011;11222;50.872;4.312;2022-11-15T03:07:55;28.42;;;18.88;;
22111;SDS011;11222;50.872;4.312;2022-11-15T03:10:26;30.42;;;19.08;;
22111;SDS011;11222;50.872;4.312;2022-11-15T03:15:51;26.88;;;17.90;;
22111;SDS011;11222;50.872;4.312;2022-11-15T03:18:30;29.05;;;18.50;;
22111;SDS011;11222;50.872;4.312;2022-11-15T03:20:59;27.30;;;17.08;;
22111;SDS011;11222;50.872;4.312;2022-11-15T03:23:29;25.33;;;16.90;;
22111;SDS011;11222;50.872;4.312;2022-11-15T03:25:56;25.85;;;14.95;;
22111;SDS011;11222;50.872;4.312;2022-11-15T03:28:29;24.20;;;14.55;;
22111;SDS011;11222;50.872;4.312;2022-11-15T03:31:03;20.35;;;14.18;;
22111;SDS011;11222;50.872;4.312;2022-11-15T03:33:50;20.88;;;12.85;;
22111;SDS011;11222;50.872;4.312;2022-11-15T03:36:18;20.30;;;12.45;;
22111;SDS011;11222;50.872;4.312;2022-11-15T03:38:46;20.55;;;11.77;;
22111;SDS011;11222;50.872;4.312;2022-11-15T03:41:15;18.63;;;11.95;;
22111;SDS011;11222;50.872;4.312;2022-11-15T03:43:55;20.87;;;11.83;;
22111;SDS011;11222;50.872;4.312;2022-11-15T03:46:33;18.42;;;11.52;;
22111;SDS011;11222;50.872;4.312;2022-11-15T03:49:29;16.33;;;11.50;;
22111;SDS011;11222;50.872;4.312;2022-11-15T03:52:02;18.58;;;11.52;;
22111;SDS011;11222;50.872;4.312;2022-11-15T03:54:29;19.25;;;11.55;;
22111;SDS011;11222;50.872;4.312;2022-11-15T03:56:55;19.60;;;12.25;;
22111;SDS011;11222;50.872;4.312;2022-11-15T03:59:21;19.90;;;12.07;;
22111;SDS011;11222;50.872;4.312;2022-11-15T04:01:48;19.33;;;12.02;;
22111;SDS011;11222;50.872;4.312;2022-11-15T04:04:13;17.05;;;11.00;;
22111;SDS011;11222;50.872;4.312;2022-11-15T04:06:39;24.13;;;11.70;;
22111;SDS011;11222;50.872;4.312;2022-11-15T04:09:05;16.38;;;10.80;;
22111;SDS011;11222;50.872;4.312;2022-11-15T04:11:30;16.05;;;11.00;;
22111;SDS011;11222;50.872;4.312;2022-11-15T04:13:56;15.63;;;10.25;;
22111;SDS011;11222;50.872;4.312;2022-11-15T04:16:22;15.25;;;10.73;;
22111;SDS011;11222;50.872;4.312;2022-11-15T04:18:47;17.38;;;10.57;;
22111;SDS011;11222;50.872;4.312;2022-11-15T04:21:33;15.70;;;10.73;;
22111;SDS011;11222;50.872;4.312;2022-11-15T04:24:17;15.18;;;10.00;;
22111;SDS011;11222;50.872;4.312;2022-11-15T04:26:42;13.45;;;9.30;;
22111;SDS011;11222;50.872;4.312;2022-11-15T04:29:08;16.58;;;10.40;;
22111;SDS011;11222;50.872;4.312;2022-11-15T04:31:52;17.17;;;10.18;;
22111;SDS011;11222;50.872;4.312;2022-11-15T04:34:18;15.95;;;9.48;;
22111;SDS011;11222;50.872;4.312;2022-11-15T04:36:43;14.88;;;8.88;;
22111;SDS011;11222;50.872;4.312;2022-11-15T04:39:27;14.57;;;9.40;;
22111;SDS011;11222;50.872;4.312;2022-11-15T04:41:53;13.68;;;8.75;;
22111;SDS011;11222;50.872;4.312;2022-11-15T04:44:18;14.93;;;8.73;;
22111;SDS011;11222;50.872;4.312;2022-11-15T04:46:44;14.57;;;8.50;;
22111;SDS011;11222;50.872;4.312;2022-11-15T04:49:10;13.80;;;9.00;;
22111;SDS011;11222;50.872;4.312;2022-11-15T04:51:35;13.43;;;8.10;;
22111;SDS011;11222;50.872;4.312;2022-11-15T04:54:01;13.63;;;7.70;;
22111;SDS011;11222;50.872;4.312;2022-11-15T04:56:27;13.90;;;8.00;;
22111;SDS011;11222;50.872;4.312;2022-11-15T04:58:52;11.40;;;7.65;;
22111;SDS011;11222;50.872;4.312;2022-11-15T05:01:18;10.77;;;7.28;;
22111;SDS011;11222;50.872;4.312;2022-11-15T05:03:44;12.65;;;7.35;;
22111;SDS011;11222;50.872;4.312;2022-11-15T05:06:28;13.00;;;7.07;;
22111;SDS011;11222;50.872;4.312;2022-11-15T05:08:55;11.70;;;7.20;;
22111;SDS011;11222;50.872;4.312;2022-11-15T05:11:21;11.95;;;7.50;;
22111;SDS011;11222;50.872;4.312;2022-11-15T05:13:47;10.88;;;6.88;;
22111;SDS011;11222;50.872;4.312;2022-11-15T05:16:12;12.52;;;7.20;;
22111;SDS011;11222;50.872;4.312;2022-11-15T05:18:38;14.23;;;7.22;;
22111;SDS011;11222;50.872;4.312;2022-11-15T05:21:08;11.73;;;7.30;;
22111;SDS011;11222;50.872;4.312;2022-11-15T05:23:35;12.18;;;7.45;;
22111;SDS011;11222;50.872;4.312;2022-11-15T05:26:03;15.45;;;7.70;;
22111;SDS011;11222;50.872;4.312;2022-11-15T05:28:30;11.55;;;7.47;;
22111;SDS011;11222;50.872;4.312;2022-11-15T05:31:12;12.45;;;6.97;;
22111;SDS011;11222;50.872;4.312;2022-11-15T05:33:39;15.07;;;7.25;;
22111;SDS011;11222;50.872;4.312;2022-11-15T05:38:52;11.27;;;7.35;;
22111;SDS011;11222;50.872;4.312;2022-11-15T05:41:19;15.38;;;6.90;;
22111;SDS011;11222;50.872;4.312;2022-11-15T05:43:50;12.82;;;6.47;;
22111;SDS011;11222;50.872;4.312;2022-11-15T05:46:16;12.85;;;6.50;;
22111;SDS011;11222;50.872;4.312;2022-11-15T05:48:44;15.65;;;6.75;;
22111;SDS011;11222;50.872;4.312;2022-11-15T05:51:13;11.13;;;6.13;;
22111;SDS011;11222;50.872;4.312;2022-11-15T05:53:41;11.40;;;6.57;;
22111;SDS011;11222;50.872;4.312;2022-11-15T05:56:07;14.13;;;6.55;;
22111;SDS011;11222;50.872;4.312;2022-11-15T05:58:34;13.07;;;6.32;;
22111;SDS011;11222;50.872;4.312;2022-11-15T06:01:01;14.23;;;6.80;;
22111;SDS011;11222;50.872;4.312;2022-11-15T06:03:27;18.23;;;6.88;;
22111;SDS011;11222;50.872;4.312;2022-11-15T06:05:53;12.23;;;6.90;;
22111;SDS011;11222;50.872;4.312;2022-11-15T06:08:19;8.82;;;6.28;;
22111;SDS011;11222;50.872;4.312;2022-11-15T06:10:45;12.18;;;6.30;;
22111;SDS011;11222;50.872;4.312;2022-11-15T06:13:10;10.02;;;6.65;;
22111;SDS011;11222;50.872;4.312;2022-11-15T06:15:36;11.50;;;6.03;;
22111;SDS011;11222;50.872;4.312;2022-11-15T06:18:02;11.55;;;6.20;;
22111;SDS011;11222;50.872;4.312;2022-11-15T06:20:28;9.68;;;6.25;;
22111;SDS011;11222;50.872;4.312;2022-11-15T06:22:58;15.57;;;7.18;;
22111;SDS011;11222;50.872;4.312;2022-11-15T06:25:25;13.85;;;6.82;;
22111;SDS011;11222;50.872;4.312;2022-11-15T06:27:55;10.68;;;6.80;;
22111;SDS011;11222;50.872;4.312;2022-11-15T06:30:22;10.50;;;6.68;;
22111;SDS011;11222;50.872;4.312;2022-11-15T06:32:49;13.02;;;7.05;;
22111;SDS011;11222;50.872;4.312;2022-11-15T06:35:15;14.30;;;6.97;;
22111;SDS011;11222;50.872;4.312;2022-11-15T06:37:41;10.88;;;6.60;;
22111;SDS011;11222;50.872;4.312;2022-11-15T06:40:08;12.68;;;6.55;;
22111;SDS011;11222;50.872;4.312;2022-11-15T06:42:34;13.63;;;7.18;;
22111;SDS011;11222;50.872;4.312;2022-11-15T06:45:00;14.70;;;7.00;;
22111;SDS011;11222;50.872;4.312;2022-11-15T06:47:27;15.20;;;8.07;;
22111;SDS011;11222;50.872;4.312;2022-11-15T06:49:52;12.48;;;7.25;;
22111;SDS011;11222;50.872;4.312;2022-11-15T06:52:18;14.68;;;7.13;;
22111;SDS011;11222;50.872;4.312;2022-11-15T06:54:44;8.43;;;6.55;;
22111;SDS011;11222;50.872;4.312;2022-11-15T06:57:10;13.73;;;7.43;;
22111;SDS011;11222;50.872;4.312;2022-11-15T06:59:36;15.45;;;7.03;;
22111;SDS011;11222;50.872;4.312;2022-11-15T07:02:02;13.80;;;7.07;;
22111;SDS011;11222;50.872;4.312;2022-11-15T07:04:28;17.85;;;7.65;;
22111;SDS011;11222;50.872;4.312;2022-11-15T07:06:54;16.17;;;7.65;;
22111;SDS011;11222;50.872;4.312;2022-11-15T07:09:19;17.95;;;7.25;;
22111;SDS011;11222;50.872;4.312;2022-11-15T07:11:45;10.52;;;6.85;;
22111;SDS011;11222;50.872;4.312;2022-11-15T07:14:12;12.63;;;6.78;;
22111;SDS011;11222;50.872;4.312;2022-11-15T07:16:38;11.88;;;6.50;;
22111;SDS011;11222;50.872;4.312;2022-11-15T07:19:05;11.88;;;7.35;;
22111;SDS011;11222;50.872;4.312;2022-11-15T07:21:32;10.50;;;6.10;;
22111;SDS011;11222;50.872;4.312;2022-11-15T07:23:57;13.15;;;6.28;;
22111;SDS011;11222;50.872;4.312;2022-11-15T07:26:23;13.20;;;6.13;;
22111;SDS011;11222;50.872;4.312;2022-11-15T07:28:49;16.30;;;6.28;;
22111;SDS011;11222;50.872;4.312;2022-11-15T07:31:14;14.43;;;6.10;;
22111;SDS011;11222;50.872;4.312;2022-11-15T07:33:40;12.88;;;6.00;;
22111;SDS011;11222;50.872;4.312;2022-11-15T07:36:06;9.80;;;6.07;;
22111;SDS011;11222;50.872;4.312;2022-11-15T07:38:33;16.10;;;6.63;;
22111;SDS011;11222;50.872;4.312;2022-11-15T07:41:00;9.98;;;6.13;;
22111;SDS011;11222;50.872;4.312;2022-11-15T07:43:27;12.20;;;6.30;;
22111;SDS011;11222;50.872;4.312;2022-11-15T07:45:57;8.20;;;5.55;;
22111;SDS011;11222;50.872;4.312;2022-11-15T07:48:23;9.68;;;5.75;;
22111;SDS011;11222;50.872;4.312;2022-11-15T07:50:49;8.65;;;5.60;;
22111;SDS011;11222;50.872;4.312;2022-11-15T07:53:15;8.75;;;5.80;;
22111;SDS011;11222;50.872;4.312;2022-11-15T07:55:40;9.10;;;5.22;;
22111;SDS011;11222;50.872;4.312;2022-11-15T07:58:10;9.55;;;5.53;;
22111;SDS011;11222;50.872;4.312;2022-11-15T08:00:37;17.58;;;5.65;;
22111;SDS011;11222;50.872;4.312;2022-11-15T08:05:33;19.17;;;5.85;;
22111;SDS011;11222;50.872;4.312;2022-11-15T08:08:00;10.13;;;5.25;;
22111;SDS011;11222;50.872;4.312;2022-11-15T08:10:26;13.35;;;5.68;;
22111;SDS011;11222;50.872;4.312;2022-11-15T08:12:56;20.38;;;5.85;;
22111;SDS011;11222;50.872;4.312;2022-11-15T08:15:30;12.10;;;5.40;;
22111;SDS011;11222;50.872;4.312;2022-11-15T08:17:57;37.92;;;6.53;;
22111;SDS011;11222;50.872;4.312;2022-11-15T08:20:24;19.95;;;6.20;;
22111;SDS011;11222;50.872;4.312;2022-11-15T08:22:51;8.00;;;5.22;;
22111;SDS011;11222;50.872;4.312;2022-11-15T08:25:17;19.05;;;5.50;;
22111;SDS011;11222;50.872;4.312;2022-11-15T08:27:43;15.88;;;5.80;;
22111;SDS011;11222;50.872;4.312;2022-11-15T08:30:09;11.45;;;4.55;;
22111;SDS011;11222;50.872;4.312;2022-11-15T08:32:36;22.58;;;6.05;;
22111;SDS011;11222;50.872;4.312;2022-11-15T08:35:01;8.13;;;4.30;;
22111;SDS011;11222;50.872;4.312;2022-11-15T08:37:27;9.85;;;4.20;;
22111;SDS011;11222;50.872;4.312;2022-11-15T08:39:53;7.22;;;4.28;;
22111;SDS011;11222;50.872;4.312;2022-11-15T08:42:19;11.77;;;4.43;;
22111;SDS011;11222;50.872;4.312;2022-11-15T08:44:46;8.50;;;3.95;;
22111;SDS011;11222;50.872;4.312;2022-11-15T08:47:12;7.38;;;3.95;;
22111;SDS011;11222;50.872;4.312;2022-11-15T08:49:38;18.08;;;6.10;;
22111;SDS011;11222;50.872;4.312;2022-11-15T08:52:04;10.60;;;4.00;;
22111;SDS011;11222;50.872;4.312;2022-11-15T08:54:31;8.82;;;3.47;;
22111;SDS011;11222;50.872;4.312;2022-11-15T08:56:57;10.43;;;3.78;;
22111;SDS011;11222;50.872;4.312;2022-11-15T08:59:22;12.90;;;4.07;;
22111;SDS011;11222;50.872;4.312;2022-11-15T09:01:48;7.43;;;3.80;;
22111;SDS011;11222;50.872;4.312;2022-11-15T09:04:14;5.82;;;3.33;;
22111;SDS011;11222;50.872;4.312;2022-11-15T09:06:39;7.25;;;3.20;;
22111;SDS011;11222;50.872;4.312;2022-11-15T09:09:05;9.07;;;3.20;;
22111;SDS011;11222;50.872;4.312;2022-11-15T09:11:31;10.93;;;3.20;;
22111;SDS011;11222;50.872;4.312;2022-11-15T09:13:57;8.48;;;3.38;;
22111;SDS011;11222;50.872;4.312;2022-11-15T09:16:22;11.02;;;3.78;;
22111;SDS011;11222;50.872;4.312;2022-11-15T09:18:48;8.43;;;3.25;;
22111;SDS011;11222;50.872;4.312;2022-11-15T09:21:14;5.45;;;3.25;;
22111;SDS011;11222;50.872;4.312;2022-11-15T09:23:39;5.05;;;3.38;;
22111;SDS011;11222;50.872;4.312;2022-11-15T09:26:05;8.75;;;3.50;;
22111;SDS011;11222;50.872;4.312;2022-11-15T09:28:31;10.07;;;3.20;;
22111;SDS011;11222;50.872;4.312;2022-11-15T09:31:02;9.60;;;3.90;;
22111;SDS011;11222;50.872;4.312;2022-11-15T09:33:29;12.05;;;3.38;;
22111;SDS011;11222;50.872;4.312;2022-11-15T09:35:59;8.88;;;3.47;;
22111;SDS011;11222;50.872;4.312;2022-11-15T09:38:29;6.68;;;3.38;;
22111;SDS011;11222;50.872;4.312;2022-11-15T09:41:05;8.18;;;3.15;;
22111;SDS011;11222;50.872;4.312;2022-11-15T09:46:15;10.68;;;3.50;;
22111;SDS011;11222;50.872;4.312;2022-11-15T09:49:00;5.03;;;3.20;;
22111;SDS011;11222;50.872;4.312;2022-11-15T09:51:37;7.18;;;3.15;;
22111;SDS011;11222;50.872;4.312;2022-11-15T09:54:31;9.70;;;3.17;;
22111;SDS011;11222;50.872;4.312;2022-11-15T09:59:58;10.23;;;3.13;;
22111;SDS011;11222;50.872;4.312;2022-11-15T10:05:47;9.85;;;3.40;;
22111;SDS011;11222;50.872;4.312;2022-11-15T10:11:29;9.88;;;3.03;;
22111;SDS011;11222;50.872;4.312;2022-11-15T10:13:59;12.63;;;2.85;;
22111;SDS011;11222;50.872;4.312;2022-11-15T10:24:52;13.00;;;4.05;;
22111;SDS011;11222;50.872;4.312;2022-11-15T10:27:33;12.27;;;3.30;;
22111;SDS011;11222;50.872;4.312;2022-11-15T10:29:59;10.57;;;3.33;;
22111;SDS011;11222;50.872;4.312;2022-11-15T10:32:24;14.15;;;3.50;;
22111;SDS011;11222;50.872;4.312;2022-11-15T10:34:51;12.73;;;3.22;;
22111;SDS011;11222;50.872;4.312;2022-11-15T10:37:27;5.63;;;2.88;;
22111;SDS011;11222;50.872;4.312;2022-11-15T10:43:04;10.57;;;2.70;;
22111;SDS011;11222;50.872;4.312;2022-11-15T10:45:37;7.18;;;2.90;;
22111;SDS011;11222;50.872;4.312;2022-11-15T10:50:38;7.60;;;2.85;;
22111;SDS011;11222;50.872;4.312;2022-11-15T10:53:40;8.48;;;3.00;;
22111;SDS011;11222;50.872;4.312;2022-11-15T10:56:06;7.53;;;2.58;;
22111;SDS011;11222;50.872;4.312;2022-11-15T10:58:41;4.70;;;2.83;;
22111;SDS011;11222;50.872;4.312;2022-11-15T11:01:18;9.68;;;3.00;;
22111;SDS011;11222;50.872;4.312;2022-11-15T11:04:06;9.20;;;3.00;;
22111;SDS011;11222;50.872;4.312;2022-11-15T11:06:53;9.80;;;3.53;;
22111;SDS011;11222;50.872;4.312;2022-11-15T11:09:36;11.68;;;3.25;;
22111;SDS011;11222;50.872;4.312;2022-11-15T11:12:05;8.75;;;3.30;;
22111;SDS011;11222;50.872;4.312;2022-11-15T11:14:35;8.27;;;3.78;;
22111;SDS011;11222;50.872;4.312;2022-11-15T11:17:03;11.88;;;4.00;;
22111;SDS011;11222;50.872;4.312;2022-11-15T11:22:34;8.48;;;3.13;;
22111;SDS011;11222;50.872;4.312;2022-11-15T11:28:05;10.13;;;3.38;;
22111;SDS011;11222;50.872;4.312;2022-11-15T11:30:38;9.02;;;2.95;;
22111;SDS011;11222;50.872;4.312;2022-11-15T11:33:22;6.45;;;2.80;;
22111;SDS011;11222;50.872;4.312;2022-11-15T11:39:05;4.82;;;2.47;;
22111;SDS011;11222;50.872;4.312;2022-11-15T11:46:50;7.22;;;3.13;;
22111;SDS011;11222;50.872;4.312;2022-11-15T11:49:41;3.85;;;2.83;;
22111;SDS011;11222;50.872;4.312;2022-11-15T11:52:16;3.65;;;2.60;;
22111;SDS011;11222;50.872;4.312;2022-11-15T11:54:58;3.75;;;2.50;;
22111;SDS011;11222;50.872;4.312;2022-11-15T12:00:22;5.60;;;2.60;;
22111;SDS011;11222;50.872;4.312;2022-11-15T12:05:30;8.80;;;2.78;;
22111;SDS011;11222;50.872;4.312;2022-11-15T12:11:11;7.38;;;2.90;;
22111;SDS011;11222;50.872;4.312;2022-11-15T12:13:38;8.52;;;2.65;;
22111;SDS011;11222;50.872;4.312;2022-11-15T12:16:07;7.72;;;3.30;;
22111;SDS011;11222;50.872;4.312;2022-11-15T12:18:36;8.65;;;3.13;;
22111;SDS011;11222;50.872;4.312;2022-11-15T12:21:04;8.77;;;2.70;;
22111;SDS011;11222;50.872;4.312;2022-11-15T12:23:52;5.38;;;2.72;;
22111;SDS011;11222;50.872;4.312;2022-11-15T12:26:31;5.38;;;2.58;;
22111;SDS011;11222;50.872;4.312;2022-11-15T12:29:10;6.15;;;2.70;;
22111;SDS011;11222;50.872;4.312;2022-11-15T12:31:42;9.05;;;3.00;;
22111;SDS011;11222;50.872;4.312;2022-11-15T12:36:45;5.05;;;2.78;;
22111;SDS011;11222;50.872;4.312;2022-11-15T12:39:13;6.00;;;3.05;;
22111;SDS011;11222;50.872;4.312;2022-11-15T13:02:44;5.78;;;3.97;;
22111;SDS011;11222;50.872;4.312;2022-11-15T13:17:45;4.70;;;3.22;;
22111;SDS011;11222;50.872;4.312;2022-11-15T13:22:40;4.07;;;3.10;;
22111;SDS011;11222;50.872;4.312;2022-11-15T13:27:54;7.10;;;3.50;;
22111;SDS011;11222;50.872;4.312;2022-11-15T13:30:26;5.78;;;3.10;;
22111;SDS011;11222;50.872;4.312;2022-11-15T13:32:54;14.98;;;3.60;;
22111;SDS011;11222;50.872;4.312;2022-11-15T13:35:21;9.98;;;3.03;;
22111;SDS011;11222;50.872;4.312;2022-11-15T13:37:50;4.88;;;3.30;;
22111;SDS011;11222;50.872;4.312;2022-11-15T13:40:23;15.55;;;3.92;;
22111;SDS011;11222;50.872;4.312;2022-11-15T13:42:55;7.00;;;3.08;;
22111;SDS011;11222;50.872;4.312;2022-11-15T13:45:22;17.15;;;3.85;;
22111;SDS011;11222;50.872;4.312;2022-11-15T13:47:54;9.05;;;2.97;;
22111;SDS011;11222;50.872;4.312;2022-11-15T13:50:22;8.57;;;3.65;;
22111;SDS011;11222;50.872;4.312;2022-11-15T13:52:56;5.72;;;3.00;;
22111;SDS011;11222;50.872;4.312;2022-11-15T13:55:24;3.33;;;2.60;;
22111;SDS011;11222;50.872;4.312;2022-11-15T14:03:11;4.80;;;2.70;;
22111;SDS011;11222;50.872;4.312;2022-11-15T14:05:46;4.45;;;2.80;;
22111;SDS011;11222;50.872;4.312;2022-11-15T14:11:33;4.72;;;3.00;;
22111;SDS011;11222;50.872;4.312;2022-11-15T14:14:03;3.05;;;2.60;;
22111;SDS011;11222;50.872;4.312;2022-11-15T14:19:08;10.15;;;3.15;;
22111;SDS011;11222;50.872;4.312;2022-11-15T14:22:07;19.50;;;3.83;;
22111;SDS011;11222;50.872;4.312;2022-11-15T14:24:37;8.20;;;3.17;;
22111;SDS011;11222;50.872;4.312;2022-11-15T14:27:20;37.50;;;6.35;;
22111;SDS011;11222;50.872;4.312;2022-11-15T14:29:50;3.92;;;2.70;;
22111;SDS011;11222;50.872;4.312;2022-11-15T14:32:18;9.05;;;4.22;;
22111;SDS011;11222;50.872;4.312;2022-11-15T14:35:15;15.05;;;4.43;;
22111;SDS011;11222;50.872;4.312;2022-11-15T14:37:45;20.48;;;4.50;;
22111;SDS011;11222;50.872;4.312;2022-11-15T14:40:13;22.55;;;4.90;;
22111;SDS011;11222;50.872;4.312;2022-11-15T14:42:44;16.23;;;8.05;;
22111;SDS011;11222;50.872;4.312;2022-11-15T14:45:15;22.40;;;4.78;;
22111;SDS011;11222;50.872;4.312;2022-11-15T14:47:43;8.25;;;4.78;;
22111;SDS011;11222;50.872;4.312;2022-11-15T14:50:16;10.68;;;5.50;;
22111;SDS011;11222;50.872;4.312;2022-11-15T14:52:43;69.28;;;9.88;;
22111;SDS011;11222;50.872;4.312;2022-11-15T14:55:12;9.35;;;4.32;;
22111;SDS011;11222;50.872;4.312;2022-11-15T14:57:53;18.52;;;5.78;;
22111;SDS011;11222;50.872;4.312;2022-11-15T15:00:22;10.68;;;4.40;;
22111;SDS011;11222;50.872;4.312;2022-11-15T15:02:48;69.45;;;10.95;;
22111;SDS011;11222;50.872;4.312;2022-11-15T15:05:20;42.92;;;8.07;;
22111;SDS011;11222;50.872;4.312;2022-11-15T15:07:57;28.75;;;6.18;;
22111;SDS011;11222;50.872;4.312;2022-11-15T15:10:24;74.80;;;8.98;;
22111;SDS011;11222;50.872;4.312;2022-11-15T15:12:52;10.10;;;4.40;;
22111;SDS011;11222;50.872;4.312;2022-11-15T15:15:21;51.10;;;7.65;;
22111;SDS011;11222;50.872;4.312;2022-11-15T15:17:49;64.35;;;8.50;;
22111;SDS011;11222;50.872;4.312;2022-11-15T15:20:15;135.43;;;13.70;;
22111;SDS011;11222;50.872;4.312;2022-11-15T15:22:41;22.95;;;5.50;;
22111;SDS011;11222;50.872;4.312;2022-11-15T15:25:21;155.65;;;16.20;;
22111;SDS011;11222;50.872;4.312;2022-11-15T15:27:47;176.93;;;17.73;;
22111;SDS011;11222;50.872;4.312;2022-11-15T15:30:13;28.13;;;7.43;;
22111;SDS011;11222;50.872;4.312;2022-11-15T15:32:39;24.65;;;5.50;;
22111;SDS011;11222;50.872;4.312;2022-11-15T15:35:04;33.63;;;8.80;;
22111;SDS011;11222;50.872;4.312;2022-11-15T15:37:30;25.48;;;8.68;;
22111;SDS011;11222;50.872;4.312;2022-11-15T15:39:58;47.22;;;7.50;;
22111;SDS011;11222;50.872;4.312;2022-11-15T15:42:24;13.07;;;4.72;;
22111;SDS011;11222;50.872;4.312;2022-11-15T15:44:50;21.27;;;4.93;;
22111;SDS011;11222;50.872;4.312;2022-11-15T15:47:17;16.70;;;5.03;;
22111;SDS011;11222;50.872;4.312;2022-11-15T15:49:44;14.93;;;5.15;;
22111;SDS011;11222;50.872;4.312;2022-11-15T15:52:16;69.53;;;8.98;;
22111;SDS011;11222;50.872;4.312;2022-11-15T15:54:42;21.77;;;5.35;;
22111;SDS011;11222;50.872;4.312;2022-11-15T15:57:08;8.95;;;4.55;;
22111;SDS011;11222;50.872;4.312;2022-11-15T15:59:37;21.17;;;5.93;;
22111;SDS011;11222;50.872;4.312;2022-11-15T16:02:03;45.28;;;7.53;;
22111;SDS011;11222;50.872;4.312;2022-11-15T16:04:29;12.90;;;5.00;;
22111;SDS011;11222;50.872;4.312;2022-11-15T16:07:01;19.95;;;7.15;;
22111;SDS011;11222;50.872;4.312;2022-11-15T16:09:27;6.97;;;4.68;;
22111;SDS011;11222;50.872;4.312;2022-11-15T16:12:12;9.93;;;7.40;;
22111;SDS011;11222;50.872;4.312;2022-11-15T16:14:37;11.30;;;6.50;;
22111;SDS011;11222;50.872;4.312;2022-11-15T16:17:03;16.00;;;8.95;;
22111;SDS011;11222;50.872;4.312;2022-11-15T16:19:29;15.90;;;6.53;;
22111;SDS011;11222;50.872;4.312;2022-11-15T16:21:55;9.80;;;6.25;;
22111;SDS011;11222;50.872;4.312;2022-11-15T16:24:21;16.95;;;8.43;;
22111;SDS011;11222;50.872;4.312;2022-11-15T16:26:47;10.52;;;6.10;;
22111;SDS011;11222;50.872;4.312;2022-11-15T16:29:15;15.80;;;6.00;;
22111;SDS011;11222;50.872;4.312;2022-11-15T16:31:41;13.05;;;6.93;;
22111;SDS011;11222;50.872;4.312;2022-11-15T16:34:06;6.90;;;4.90;;
22111;SDS011;11222;50.872;4.312;2022-11-15T16:36:34;8.60;;;5.25;;
22111;SDS011;11222;50.872;4.312;2022-11-15T16:39:01;7.32;;;4.63;;
22111;SDS011;11222;50.872;4.312;2022-11-15T16:41:29;6.57;;;5.05;;
22111;SDS011;11222;50.872;4.312;2022-11-15T16:43:56;6.05;;;4.60;;
22111;SDS011;11222;50.872;4.312;2022-11-15T16:46:23;6.47;;;4.70;;
22111;SDS011;11222;50.872;4.312;2022-11-15T16:48:50;5.47;;;4.65;;
22111;SDS011;11222;50.872;4.312;2022-11-15T16:51:16;5.95;;;4.32;;
22111;SDS011;11222;50.872;4.312;2022-11-15T16:53:42;7.20;;;4.68;;